Time;durP1;ratioP1;P1;durP2;ratioP2;P2;SDS_P1;SDS_P2;PMS_P1;PMS_P2;Temp;Humidity;BMP_temperature;BMP_pressure;BME280_temperature;BME280_humidity;BME280_pressure;Samples;Min_cycle;Max_cycle;Signal;HPM_P1;HPM_P2
2021/08/31 00:00:31;;;;;;;19.50;18.10;;;12.20;93.50;;;;;;4933746;29;20226;-74
2021/08/31 00:03:03;;;;;;;19.10;17.80;;;12.20;93.10;;;;;;4942219;29;20144;-73
2021/08/31 00:05:35;;;;;;;19.10;17.80;;;12.20;92.80;;;;;;4943230;29;20427;-72
2021/08/31 00:08:07;;;;;;;19.08;17.77;;;12.20;93.10;;;;;;4942835;29;20106;-74
2021/08/31 00:10:39;;;;;;;18.90;17.58;;;12.20;93.60;;;;;;4936227;29;20109;-74
2021/08/31 00:13:11;;;;;;;18.80;17.50;;;12.20;92.90;;;;;;4942738;29;20162;-74
2021/08/31 00:15:43;;;;;;;19.52;18.20;;;12.20;92.90;;;;;;4943260;29;20526;-74
2021/08/31 00:18:15;;;;;;;19.05;17.75;;;12.20;92.70;;;;;;4942783;29;20177;-74
2021/08/31 00:20:47;;;;;;;19.05;17.63;;;12.30;92.80;;;;;;4935807;29;20069;-74
2021/08/31 00:23:19;;;;;;;19.17;17.88;;;12.30;93.40;;;;;;4930256;29;20138;-73
2021/08/31 00:25:53;;;;;;;19.80;18.40;;;12.30;92.80;;;;;;4943002;29;20055;-74
2021/08/31 00:28:24;;;;;;;19.50;18.10;;;12.30;92.60;;;;;;4943253;29;20555;-74
2021/08/31 00:30:56;;;;;;;19.33;17.92;;;12.40;92.60;;;;;;4942707;29;20598;-73
2021/08/31 00:33:28;;;;;;;19.10;17.80;;;12.40;92.60;;;;;;4941136;29;20088;-74
2021/08/31 00:36:03;;;;;;;18.90;17.60;;;12.40;92.40;;;;;;4943184;29;20059;-74
2021/08/31 00:38:35;;;;;;;19.48;18.08;;;12.30;92.50;;;;;;4942590;29;20085;-74
2021/08/31 00:41:07;;;;;;;19.25;17.85;;;12.40;92.50;;;;;;4942046;29;20065;-73
2021/08/31 00:43:46;;;;;;;19.27;17.95;;;12.40;92.40;;;;;;4942548;29;20057;-74
2021/08/31 00:46:20;;;;;;;19.52;18.13;;;12.40;93.30;;;;;;4943555;29;20047;-74
2021/08/31 00:48:52;;;;;;;19.77;18.38;;;12.40;92.60;;;;;;4941778;29;20083;-73
2021/08/31 00:51:24;;;;;;;19.50;18.10;;;12.30;92.60;;;;;;4940462;29;20047;-73
2021/08/31 00:53:57;;;;;;;19.55;17.95;;;12.40;92.70;;;;;;4942158;29;20047;-73
2021/08/31 00:56:30;;;;;;;19.60;18.20;;;12.40;92.50;;;;;;4942557;29;20190;-73
2021/08/31 00:59:02;;;;;;;19.45;18.15;;;12.40;92.50;;;;;;4942921;29;20079;-73
2021/08/31 01:01:34;;;;;;;19.20;17.90;;;12.40;92.40;;;;;;4941771;29;20047;-74
2021/08/31 01:04:07;;;;;;;19.10;17.65;;;12.50;92.50;;;;;;4942861;29;20078;-73
2021/08/31 01:06:39;;;;;;;19.25;17.95;;;12.50;92.30;;;;;;4942293;29;20118;-73
2021/08/31 01:09:12;;;;;;;19.90;18.50;;;12.50;92.20;;;;;;4941094;29;20436;-74
2021/08/31 01:11:46;;;;;;;20.10;18.70;;;12.50;92.20;;;;;;4942649;29;20063;-73
2021/08/31 01:14:19;;;;;;;19.92;18.52;;;12.50;92.20;;;;;;4942887;29;20043;-75
2021/08/31 01:16:52;;;;;;;20.13;18.63;;;12.50;92.30;;;;;;4941099;29;20466;-75
2021/08/31 01:19:31;;;;;;;19.92;18.52;;;12.40;92.00;;;;;;4941602;29;20177;-74
2021/08/31 01:22:12;;;;;;;20.52;19.13;;;12.50;92.20;;;;;;4942223;29;20055;-75
2021/08/31 01:24:45;;;;;;;20.30;18.90;;;12.40;92.00;;;;;;4941007;29;20114;-74
2021/08/31 01:27:18;;;;;;;20.60;19.20;;;12.40;91.80;;;;;;4942345;29;20063;-75
2021/08/31 01:29:50;;;;;;;20.33;18.92;;;12.40;92.00;;;;;;4943289;29;20124;-74
2021/08/31 01:32:22;;;;;;;20.90;19.40;;;12.40;91.80;;;;;;4941197;29;20047;-75
2021/08/31 01:34:54;;;;;;;20.10;18.70;;;12.50;92.00;;;;;;4942147;29;20149;-75
2021/08/31 01:37:25;;;;;;;20.45;19.05;;;12.50;92.10;;;;;;4934364;29;20544;-75
2021/08/31 01:39:57;;;;;;;20.58;19.17;;;12.40;92.10;;;;;;4942451;29;20047;-74
2021/08/31 01:42:49;;;;;;;20.58;19.17;;;12.40;92.20;;;;;;4922522;29;20128;-74
2021/08/31 01:45:21;;;;;;;20.60;19.10;;;12.40;92.00;;;;;;4942254;29;20069;-75
2021/08/31 01:47:53;;;;;;;20.58;19.17;;;12.30;92.30;;;;;;4946653;29;20051;-74
2021/08/31 01:50:25;;;;;;;20.67;19.27;;;12.30;92.50;;;;;;4945014;29;20126;-75
2021/08/31 01:52:57;;;;;;;20.90;19.40;;;12.30;92.50;;;;;;4946005;29;20078;-75
2021/08/31 01:55:29;;;;;;;20.13;18.73;;;12.30;92.40;;;;;;4945212;29;20177;-74
2021/08/31 01:58:01;;;;;;;20.83;19.42;;;12.30;92.20;;;;;;4945974;29;20148;-74
2021/08/31 02:00:33;;;;;;;19.98;18.65;;;12.20;92.10;;;;;;4945550;29;20070;-74
2021/08/31 02:03:05;;;;;;;20.13;18.73;;;12.10;91.80;;;;;;4945062;29;20051;-74
2021/08/31 02:05:37;;;;;;;20.42;18.95;;;12.10;92.70;;;;;;4943509;29;20185;-74
2021/08/31 02:08:09;;;;;;;19.40;18.10;;;12.10;92.70;;;;;;4938486;29;20055;-75
2021/08/31 02:10:42;;;;;;;19.70;18.40;;;12.20;92.60;;;;;;4944349;29;20134;-75
2021/08/31 02:13:14;;;;;;;19.08;17.77;;;12.20;92.40;;;;;;4943759;29;20268;-74
2021/08/31 02:15:46;;;;;;;18.90;17.60;;;12.20;92.50;;;;;;4945295;29;20067;-75
2021/08/31 02:18:18;;;;;;;19.13;17.83;;;12.30;92.60;;;;;;4945658;29;20761;-74
2021/08/31 02:20:50;;;;;;;19.38;17.98;;;12.30;92.40;;;;;;4944826;29;20082;-74
2021/08/31 02:23:22;;;;;;;19.38;17.98;;;12.30;92.60;;;;;;4945607;29;20093;-74
2021/08/31 02:25:54;;;;;;;19.55;18.17;;;12.30;92.30;;;;;;4942362;29;20062;-74
2021/08/31 02:28:26;;;;;;;19.30;17.80;;;12.30;92.30;;;;;;4937169;29;20047;-73
2021/08/31 02:30:58;;;;;;;19.50;18.10;;;12.30;92.40;;;;;;4944721;29;20130;-74
2021/08/31 02:33:30;;;;;;;19.60;18.20;;;12.30;92.30;;;;;;4944110;29;20055;-74
2021/08/31 02:36:02;;;;;;;19.52;18.00;;;12.30;92.80;;;;;;4942465;29;20051;-75
2021/08/31 02:38:34;;;;;;;19.13;17.83;;;12.30;92.60;;;;;;4945723;29;20051;-74
2021/08/31 02:41:06;;;;;;;19.15;17.85;;;12.30;92.50;;;;;;4944179;29;20157;-74
2021/08/31 02:43:38;;;;;;;19.50;18.20;;;12.30;92.40;;;;;;4943552;29;20075;-73
2021/08/31 02:46:09;;;;;;;19.45;18.08;;;12.40;92.50;;;;;;4943693;29;20504;-73
2021/08/31 02:48:43;;;;;;;19.10;17.80;;;12.40;92.10;;;;;;4945273;29;20066;-73
2021/08/31 02:51:15;;;;;;;18.65;17.35;;;12.30;92.50;;;;;;4938316;29;20134;-74
2021/08/31 02:53:47;;;;;;;19.55;17.85;;;12.40;92.30;;;;;;4958558;29;20132;-74
2021/08/31 02:56:19;;;;;;;19.17;17.88;;;12.40;92.10;;;;;;4943961;29;20147;-74
2021/08/31 02:58:51;;;;;;;19.15;17.85;;;12.40;92.30;;;;;;4944294;29;20074;-74
2021/08/31 03:04:03;;;;;;;19.83;18.42;;;12.40;92.10;;;;;;4944106;29;20048;-73
2021/08/31 03:06:34;;;;;;;19.42;18.13;;;12.40;92.00;;;;;;4944237;29;20133;-74
2021/08/31 03:09:06;;;;;;;19.35;18.05;;;12.40;91.80;;;;;;4944787;29;20729;-73
2021/08/31 03:11:38;;;;;;;19.42;18.10;;;12.50;91.80;;;;;;4942625;29;20583;-75
2021/08/31 03:14:10;;;;;;;19.48;18.08;;;12.50;91.80;;;;;;4944246;29;20627;-74
2021/08/31 03:16:42;;;;;;;19.80;18.40;;;12.50;92.00;;;;;;4943971;29;20360;-74
2021/08/31 03:19:16;;;;;;;18.90;17.60;;;12.50;92.30;;;;;;4943821;29;20055;-74
2021/08/31 03:21:49;;;;;;;19.27;17.98;;;12.40;92.20;;;;;;4944286;29;20058;-74
2021/08/31 03:24:21;;;;;;;19.85;18.40;;;12.40;92.50;;;;;;4944133;29;21078;-74
2021/08/31 03:26:54;;;;;;;19.30;17.90;;;12.40;92.00;;;;;;4943179;29;20134;-74
2021/08/31 03:29:26;;;;;;;19.23;17.83;;;12.30;92.10;;;;;;4936411;29;20979;-74
2021/08/31 03:31:58;;;;;;;19.15;17.85;;;12.30;92.20;;;;;;4943390;29;20055;-74
2021/08/31 03:34:30;;;;;;;19.83;18.33;;;12.30;92.20;;;;;;4943585;29;21397;-74
2021/08/31 03:37:02;;;;;;;19.98;18.48;;;12.30;92.50;;;;;;4941737;29;20141;-74
2021/08/31 03:39:36;;;;;;;19.35;17.90;;;12.30;92.50;;;;;;4942426;29;20449;-74
2021/08/31 03:42:08;;;;;;;19.05;17.75;;;12.30;92.50;;;;;;4941480;29;20202;-74
2021/08/31 03:44:40;;;;;;;19.70;18.40;;;12.30;92.50;;;;;;4943301;29;20108;-74
2021/08/31 03:47:12;;;;;;;19.75;18.35;;;12.30;92.50;;;;;;4944054;29;20089;-74
2021/08/31 03:49:43;;;;;;;19.98;18.55;;;12.30;92.60;;;;;;4955280;29;20681;-74
2021/08/31 03:52:16;;;;;;;19.55;18.25;;;12.30;92.60;;;;;;4943965;29;20134;-74
2021/08/31 03:54:48;;;;;;;18.95;17.45;;;12.30;92.60;;;;;;4943299;29;20688;-74
2021/08/31 03:57:20;;;;;;;19.30;18.00;;;12.30;92.50;;;;;;4943620;29;20534;-74
2021/08/31 03:59:52;;;;;;;19.98;18.58;;;12.30;92.50;;;;;;4942733;29;20120;-74
2021/08/31 04:02:24;;;;;;;19.40;18.10;;;12.30;92.50;;;;;;4935034;29;20407;-73
2021/08/31 04:04:56;;;;;;;19.73;18.42;;;12.30;92.50;;;;;;4943301;29;20123;-74
2021/08/31 04:07:28;;;;;;;19.77;18.45;;;12.30;92.40;;;;;;4956050;29;20093;-74
2021/08/31 04:09:59;;;;;;;19.85;18.45;;;12.30;92.50;;;;;;4943627;29;20047;-74
2021/08/31 04:12:31;;;;;;;19.40;18.10;;;12.30;92.80;;;;;;4954824;29;20051;-74
2021/08/31 04:15:04;;;;;;;19.17;17.88;;;12.30;92.70;;;;;;4942370;29;20776;-74
2021/08/31 04:17:36;;;;;;;19.45;18.15;;;12.30;92.60;;;;;;4942772;29;20082;-74
2021/08/31 04:20:08;;;;;;;19.58;18.10;;;12.40;92.50;;;;;;4943408;29;21080;-74
2021/08/31 04:22:40;;;;;;;18.83;17.52;;;12.30;92.40;;;;;;4941894;29;20603;-74
2021/08/31 04:25:12;;;;;;;19.17;17.88;;;12.30;92.40;;;;;;4943223;29;20104;-75
2021/08/31 04:27:44;;;;;;;19.02;17.73;;;12.40;92.30;;;;;;4942003;29;20093;-75
2021/08/31 04:30:16;;;;;;;19.13;17.83;;;12.40;92.30;;;;;;4942716;29;20055;-75
2021/08/31 04:32:48;;;;;;;18.70;17.35;;;12.40;92.20;;;;;;4942049;29;20054;-75
2021/08/31 04:35:20;;;;;;;18.52;17.23;;;12.40;92.20;;;;;;4942993;29;20141;-74
2021/08/31 04:37:52;;;;;;;18.70;17.40;;;12.30;92.30;;;;;;4943406;29;20049;-74
2021/08/31 04:40:24;;;;;;;18.27;17.00;;;12.40;92.20;;;;;;4942240;29;20047;-74
2021/08/31 04:42:56;;;;;;;19.23;17.83;;;12.30;92.30;;;;;;4942334;29;20046;-73
2021/08/31 04:45:28;;;;;;;18.63;17.33;;;12.30;92.10;;;;;;5378330;24;20084;-72
2021/08/31 04:48:00;;;;;;;18.80;17.48;;;12.30;92.10;;;;;;4954111;29;20063;-73
2021/08/31 04:50:32;;;;;;;18.55;17.25;;;12.30;92.50;;;;;;4952089;29;20714;-75
2021/08/31 04:53:04;;;;;;;18.98;17.65;;;12.30;92.50;;;;;;4950903;29;20047;-74
2021/08/31 04:55:36;;;;;;;19.70;18.30;;;12.30;92.50;;;;;;4949933;29;20070;-73
2021/08/31 04:58:08;;;;;;;20.00;18.50;;;12.20;92.40;;;;;;4949914;29;20051;-74
2021/08/31 05:00:39;;;;;;;19.02;17.58;;;12.30;92.40;;;;;;4952676;29;20050;-73
2021/08/31 05:03:12;;;;;;;18.30;17.10;;;12.20;92.70;;;;;;4951927;29;20083;-73
2021/08/31 05:05:44;;;;;;;18.33;17.00;;;12.20;92.70;;;;;;4950624;29;20103;-73
2021/08/31 05:08:16;;;;;;;18.55;17.25;;;12.20;92.90;;;;;;4950344;29;20046;-74
2021/08/31 05:10:48;;;;;;;17.67;16.42;;;12.20;92.80;;;;;;4951524;29;20099;-75
2021/08/31 05:13:20;;;;;;;18.00;16.80;;;12.20;92.80;;;;;;4956924;29;20074;-75
2021/08/31 05:15:53;;;;;;;18.13;16.92;;;12.20;92.50;;;;;;4950234;29;20078;-74
2021/08/31 05:18:27;;;;;;;17.85;16.65;;;12.30;93.00;;;;;;4951500;29;20053;-73
2021/08/31 05:20:58;;;;;;;17.83;16.52;;;12.30;92.70;;;;;;4954004;29;20590;-72
2021/08/31 05:23:32;;;;;;;17.77;16.58;;;12.30;92.60;;;;;;4954290;29;20055;-73
2021/08/31 05:26:04;;;;;;;18.02;16.80;;;12.40;92.60;;;;;;4952089;29;20059;-74
2021/08/31 05:28:36;;;;;;;17.65;16.35;;;12.40;93.40;;;;;;4956211;29;20092;-73
2021/08/31 05:31:10;;;;;;;17.90;16.70;;;12.40;92.70;;;;;;4952359;29;20067;-73
2021/08/31 05:33:43;;;;;;;18.33;17.02;;;12.50;92.60;;;;;;4953734;29;20074;-73
2021/08/31 05:36:15;;;;;;;17.42;16.23;;;12.50;92.30;;;;;;4956012;29;20286;-73
2021/08/31 05:38:47;;;;;;;19.17;17.60;;;12.50;92.30;;;;;;4954337;29;20061;-72
2021/08/31 05:41:19;;;;;;;18.75;17.42;;;12.50;92.20;;;;;;4953413;29;20074;-75
2021/08/31 05:43:50;;;;;;;18.77;17.38;;;12.50;92.50;;;;;;4952288;29;20051;-74
2021/08/31 05:46:22;;;;;;;18.58;17.27;;;12.50;92.90;;;;;;4951098;29;20097;-73
2021/08/31 05:48:54;;;;;;;18.33;17.08;;;12.40;92.90;;;;;;4953079;29;20055;-73
2021/08/31 05:51:27;;;;;;;18.63;17.40;;;12.30;93.10;;;;;;4944509;29;20872;-73
2021/08/31 05:53:59;;;;;;;19.20;17.60;;;12.40;93.10;;;;;;4954386;29;20122;-74
2021/08/31 05:56:31;;;;;;;18.10;16.80;;;12.40;93.20;;;;;;4955139;29;20101;-74
2021/08/31 05:59:03;;;;;;;18.30;17.05;;;12.40;93.20;;;;;;4955334;29;20062;-74
2021/08/31 06:01:36;;;;;;;18.23;17.02;;;12.40;92.90;;;;;;4953779;29;20145;-74
2021/08/31 06:04:08;;;;;;;18.15;16.88;;;12.50;93.10;;;;;;4961047;29;20047;-72
2021/08/31 06:06:40;;;;;;;17.30;16.10;;;12.50;92.80;;;;;;4954043;29;20139;-72
2021/08/31 06:09:12;;;;;;;17.25;16.05;;;12.50;92.90;;;;;;4956253;29;20716;-73
2021/08/31 06:11:44;;;;;;;17.55;16.35;;;12.50;92.80;;;;;;4951786;29;20098;-74
2021/08/31 06:14:16;;;;;;;17.80;16.60;;;12.60;92.70;;;;;;4952265;29;20051;-72
2021/08/31 06:16:48;;;;;;;18.60;17.27;;;12.60;92.80;;;;;;4953237;29;20485;-74
2021/08/31 06:19:20;;;;;;;17.85;16.55;;;12.60;92.50;;;;;;4953316;29;20061;-73
2021/08/31 06:21:52;;;;;;;18.70;17.40;;;12.60;92.70;;;;;;4954730;29;20059;-73
2021/08/31 06:24:24;;;;;;;18.80;17.50;;;12.60;92.80;;;;;;4952837;29;20163;-72
2021/08/31 06:26:56;;;;;;;18.83;17.52;;;12.70;93.30;;;;;;4951840;29;20062;-74
2021/08/31 06:29:28;;;;;;;18.10;16.80;;;12.80;93.30;;;;;;4954390;29;20070;-71
2021/08/31 06:32:00;;;;;;;18.33;17.02;;;12.80;93.20;;;;;;4953268;29;20112;-71
2021/08/31 06:34:32;;;;;;;18.55;17.25;;;12.80;93.30;;;;;;4955336;29;20577;-73
2021/08/31 06:37:04;;;;;;;18.52;17.02;;;12.90;93.30;;;;;;4954769;29;20047;-74
2021/08/31 06:39:36;;;;;;;18.58;17.27;;;12.90;93.30;;;;;;4955018;29;20537;-73
2021/08/31 06:42:08;;;;;;;18.25;17.05;;;13.00;93.20;;;;;;4954744;29;20142;-74
2021/08/31 06:44:40;;;;;;;18.92;17.52;;;13.00;93.20;;;;;;4951641;29;20107;-73
2021/08/31 06:47:12;;;;;;;18.48;17.27;;;13.00;93.20;;;;;;4952107;29;20159;-73
2021/08/31 06:49:44;;;;;;;18.33;17.02;;;13.10;93.00;;;;;;4953778;29;20051;-73
2021/08/31 06:52:16;;;;;;;18.88;17.58;;;13.10;93.10;;;;;;4952238;29;20112;-73
2021/08/31 06:54:48;;;;;;;18.52;17.23;;;13.10;93.00;;;;;;4954241;29;20054;-74
2021/08/31 06:57:20;;;;;;;18.83;17.52;;;13.10;92.90;;;;;;4954642;29;20055;-72
2021/08/31 06:59:52;;;;;;;19.02;17.63;;;13.20;92.60;;;;;;4953349;29;20139;-73
2021/08/31 07:02:24;;;;;;;19.00;17.60;;;13.20;92.60;;;;;;4953845;29;20921;-73
2021/08/31 07:04:56;;;;;;;19.00;17.65;;;13.20;92.70;;;;;;4951138;29;20055;-73
2021/08/31 07:07:28;;;;;;;18.65;17.35;;;13.30;92.60;;;;;;4951922;29;20051;-73
2021/08/31 07:10:00;;;;;;;18.75;17.50;;;13.30;92.70;;;;;;4953294;29;20047;-74
2021/08/31 07:12:32;;;;;;;19.13;17.63;;;13.40;92.70;;;;;;4952651;29;20129;-74
2021/08/31 07:15:05;;;;;;;19.70;18.20;;;13.40;92.60;;;;;;4950701;29;20067;-73
2021/08/31 07:17:37;;;;;;;18.80;17.50;;;13.40;92.50;;;;;;4953262;29;20169;-74
2021/08/31 07:20:09;;;;;;;18.08;16.88;;;13.40;91.30;;;;;;4953349;29;20047;-73
2021/08/31 07:22:41;;;;;;;17.95;16.65;;;13.40;91.70;;;;;;4952889;29;20086;-74
2021/08/31 07:25:13;;;;;;;17.63;16.33;;;13.40;92.30;;;;;;4953230;29;20425;-75
2021/08/31 07:27:45;;;;;;;18.23;16.88;;;13.40;92.00;;;;;;4952179;29;20270;-73
2021/08/31 07:30:17;;;;;;;17.88;16.63;;;13.50;92.30;;;;;;4952073;29;20074;-74
2021/08/31 07:32:49;;;;;;;18.60;17.27;;;13.50;91.80;;;;;;4953031;29;20116;-73
2021/08/31 07:35:22;;;;;;;18.77;17.48;;;13.50;91.50;;;;;;4951294;29;20562;-74
2021/08/31 07:37:54;;;;;;;18.85;17.45;;;13.60;91.60;;;;;;4953884;29;20105;-73
2021/08/31 07:40:26;;;;;;;18.30;17.05;;;13.60;91.60;;;;;;4953649;29;20124;-74
2021/08/31 07:42:58;;;;;;;18.77;17.48;;;13.60;91.70;;;;;;4952841;29;20054;-73
2021/08/31 07:45:30;;;;;;;19.05;17.58;;;13.70;91.60;;;;;;4951640;29;20135;-74
2021/08/31 07:48:02;;;;;;;18.08;16.88;;;13.70;91.00;;;;;;4954224;29;20555;-74
2021/08/31 07:50:34;;;;;;;18.95;17.58;;;13.80;91.60;;;;;;4952940;29;20050;-74
2021/08/31 07:53:06;;;;;;;18.88;17.58;;;13.80;91.50;;;;;;4952696;29;20125;-73
2021/08/31 07:55:38;;;;;;;19.23;17.83;;;13.80;91.50;;;;;;4952133;29;20047;-72
2021/08/31 07:58:10;;;;;;;18.23;16.95;;;13.90;91.20;;;;;;4953002;29;20079;-73
2021/08/31 08:00:42;;;;;;;18.25;17.05;;;13.90;90.60;;;;;;4951591;29;20078;-72
2021/08/31 08:03:14;;;;;;;18.48;17.13;;;13.90;90.50;;;;;;4953516;29;20075;-73
2021/08/31 08:05:46;;;;;;;19.17;17.85;;;13.90;91.00;;;;;;4951485;29;20060;-74
2021/08/31 08:08:18;;;;;;;19.85;18.33;;;14.00;91.00;;;;;;4951301;29;21009;-74
2021/08/31 08:10:51;;;;;;;20.50;18.77;;;14.00;91.10;;;;;;4951648;29;20050;-72
2021/08/31 08:13:23;;;;;;;18.95;17.55;;;14.10;91.40;;;;;;4951317;29;20051;-73
2021/08/31 08:15:55;;;;;;;18.75;17.45;;;14.10;91.30;;;;;;4952704;29;20174;-73
2021/08/31 08:18:26;;;;;;;19.23;17.83;;;14.20;90.80;;;;;;4952607;29;20823;-73
2021/08/31 08:20:59;;;;;;;19.63;18.30;;;14.40;90.70;;;;;;4949617;29;20055;-74
2021/08/31 08:23:31;;;;;;;19.27;17.95;;;14.50;90.10;;;;;;4950603;29;20795;-74
2021/08/31 08:26:09;;;;;;;19.40;18.00;;;14.80;90.00;;;;;;4951629;29;20055;-73
2021/08/31 08:28:41;;;;;;;20.08;18.58;;;15.00;91.10;;;;;;4952305;29;20358;-74
2021/08/31 08:31:13;;;;;;;19.63;18.13;;;15.10;89.80;;;;;;4949233;29;20047;-72
2021/08/31 08:33:45;;;;;;;19.40;18.00;;;15.20;89.90;;;;;;4948950;29;20117;-75
2021/08/31 08:36:17;;;;;;;19.67;18.38;;;15.30;88.10;;;;;;4952197;29;20123;-74
2021/08/31 08:38:49;;;;;;;19.88;18.58;;;15.40;88.40;;;;;;4948970;29;20058;-73
2021/08/31 08:41:21;;;;;;;20.25;18.85;;;15.50;88.20;;;;;;4950095;29;20091;-74
2021/08/31 08:43:58;;;;;;;20.15;18.75;;;15.60;88.70;;;;;;4952957;29;20443;-73
2021/08/31 08:46:30;;;;;;;20.70;19.27;;;15.70;89.00;;;;;;4950731;29;20058;-74
2021/08/31 08:49:02;;;;;;;20.80;19.30;;;15.70;88.80;;;;;;4951909;29;20126;-73
2021/08/31 08:51:34;;;;;;;20.20;18.80;;;15.80;88.90;;;;;;4950760;29;20442;-73
2021/08/31 08:54:07;;;;;;;20.42;18.92;;;15.80;87.10;;;;;;4952138;29;20055;-73
2021/08/31 08:56:39;;;;;;;21.63;20.13;;;15.80;88.70;;;;;;4951191;29;20047;-73
2021/08/31 08:59:11;;;;;;;22.08;20.52;;;15.90;88.80;;;;;;4950604;29;20048;-73
2021/08/31 09:01:55;;;;;;;22.23;20.63;;;15.90;88.50;;;;;;4950062;29;20171;-72
2021/08/31 09:04:48;;;;;;;22.38;20.77;;;16.00;87.90;;;;;;4952623;29;20086;-73
2021/08/31 09:07:30;;;;;;;21.58;20.08;;;15.90;85.70;;;;;;4952761;29;20047;-72
2021/08/31 09:10:25;;;;;;;21.05;19.55;;;15.90;86.10;;;;;;4952154;29;20124;-74
2021/08/31 09:12:58;;;;;;;20.40;19.00;;;15.80;86.50;;;;;;4951797;29;20142;-72
2021/08/31 09:15:38;;;;;;;26.88;24.63;;;15.90;86.20;;;;;;4952544;29;20158;-73
2021/08/31 09:18:14;;;;;;;21.17;19.52;;;15.90;87.10;;;;;;4948380;29;20055;-74
2021/08/31 09:20:55;;;;;;;21.35;19.83;;;15.90;86.00;;;;;;4951406;29;20048;-73
2021/08/31 09:23:33;;;;;;;21.00;19.50;;;16.20;87.00;;;;;;4951467;29;20790;-73
2021/08/31 09:26:12;;;;;;;21.80;20.20;;;16.60;85.50;;;;;;4951694;29;20049;-74
2021/08/31 09:28:44;;;;;;;36.47;32.72;;;17.00;84.80;;;;;;4952001;29;20051;-73
2021/08/31 09:31:19;;;;;;;24.75;22.75;;;17.30;86.40;;;;;;4950898;29;20141;-73
2021/08/31 09:33:54;;;;;;;22.30;20.65;;;17.50;85.40;;;;;;4952589;29;20421;-72
2021/08/31 09:36:26;;;;;;;21.95;20.35;;;17.60;80.30;;;;;;4951850;29;20111;-73
2021/08/31 09:39:01;;;;;;;21.77;20.27;;;17.60;83.20;;;;;;4953443;29;20142;-72
2021/08/31 09:41:36;;;;;;;22.40;20.80;;;17.70;84.80;;;;;;4950861;29;20513;-71
2021/08/31 09:44:19;;;;;;;22.80;21.20;;;17.80;84.20;;;;;;4952193;29;20051;-72
2021/08/31 09:46:59;;;;;;;21.52;20.02;;;18.10;83.30;;;;;;4951665;29;20180;-72
2021/08/31 09:49:33;;;;;;;22.42;20.92;;;18.40;82.30;;;;;;4952473;29;20051;-73
2021/08/31 09:52:15;;;;;;;22.05;20.55;;;18.70;79.30;;;;;;4949643;29;20069;-73
2021/08/31 09:54:49;;;;;;;22.23;20.73;;;19.00;80.80;;;;;;4948423;29;20552;-72
2021/08/31 09:57:37;;;;;;;22.65;21.05;;;19.10;78.80;;;;;;4950598;29;20566;-74
2021/08/31 10:00:12;;;;;;;21.38;19.77;;;19.00;78.80;;;;;;4953490;29;20050;-73
2021/08/31 10:02:48;;;;;;;21.60;20.10;;;18.80;79.70;;;;;;4951435;29;20050;-71
2021/08/31 10:05:24;;;;;;;21.20;19.70;;;18.70;78.60;;;;;;4951321;29;20046;-70
2021/08/31 10:08:00;;;;;;;21.98;20.48;;;18.60;79.30;;;;;;4956038;29;20145;-71
2021/08/31 10:10:38;;;;;;;22.13;20.60;;;18.40;78.00;;;;;;4953945;29;20101;-73
2021/08/31 10:13:13;;;;;;;22.73;21.13;;;18.40;80.00;;;;;;4952393;29;20074;-71
2021/08/31 10:15:52;;;;;;;21.80;20.30;;;18.40;79.00;;;;;;4953152;29;20043;-73
2021/08/31 10:18:27;;;;;;;20.98;19.58;;;18.40;79.80;;;;;;4954173;29;20568;-73
2021/08/31 10:21:03;;;;;;;21.50;20.02;;;18.50;81.20;;;;;;4955559;29;20055;-73
2021/08/31 10:23:42;;;;;;;21.25;19.75;;;18.60;80.00;;;;;;4954656;29;20129;-74
2021/08/31 10:26:28;;;;;;;21.05;19.65;;;18.70;79.10;;;;;;4954811;29;20149;-73
2021/08/31 10:29:19;;;;;;;21.45;19.95;;;18.90;79.30;;;;;;4954766;29;20143;-72
2021/08/31 10:31:54;;;;;;;20.58;19.17;;;19.20;78.30;;;;;;4950567;29;20047;-73
2021/08/31 10:34:35;;;;;;;20.73;19.33;;;19.10;72.50;;;;;;4951366;29;20082;-73
2021/08/31 10:37:11;;;;;;;21.63;20.13;;;19.10;74.70;;;;;;4951340;29;20814;-73
2021/08/31 10:39:53;;;;;;;21.17;19.67;;;19.10;77.60;;;;;;4953934;29;20154;-73
2021/08/31 10:42:25;;;;;;;21.42;19.92;;;19.10;78.00;;;;;;4954568;29;20147;-73
2021/08/31 10:44:58;;;;;;;21.23;19.83;;;19.10;76.30;;;;;;4953812;29;20128;-72
2021/08/31 10:47:32;;;;;;;21.48;19.98;;;19.30;76.80;;;;;;4952789;29;20050;-74
2021/08/31 10:50:09;;;;;;;21.73;20.13;;;19.30;75.70;;;;;;4952461;29;20127;-75
2021/08/31 10:52:46;;;;;;;20.88;19.38;;;19.20;76.20;;;;;;4953368;29;20765;-73
2021/08/31 10:55:24;;;;;;;20.88;19.38;;;19.20;76.20;;;;;;4951964;29;20051;-75
2021/08/31 10:58:10;;;;;;;21.40;19.92;;;19.10;75.70;;;;;;4953559;29;20586;-74
2021/08/31 11:00:42;;;;;;;20.20;18.80;;;19.00;75.30;;;;;;4953166;29;20897;-74
2021/08/31 11:03:30;;;;;;;20.23;18.73;;;18.90;75.60;;;;;;4952590;29;20635;-74
2021/08/31 11:06:15;;;;;;;19.98;18.58;;;18.90;77.20;;;;;;4953720;29;20139;-76
2021/08/31 11:09:07;;;;;;;19.95;18.55;;;18.90;74.90;;;;;;4952760;29;20131;-75
2021/08/31 11:11:45;;;;;;;19.33;17.92;;;18.90;75.70;;;;;;4959830;29;20138;-74
2021/08/31 11:14:18;;;;;;;19.42;18.02;;;18.70;74.30;;;;;;4952942;29;20063;-75
2021/08/31 11:16:49;;;;;;;19.45;18.05;;;18.60;74.20;;;;;;4950717;29;20055;-74
2021/08/31 11:19:25;;;;;;;20.02;18.73;;;18.60;75.70;;;;;;4953512;29;20059;-74
2021/08/31 11:21:57;;;;;;;19.08;17.77;;;18.60;74.70;;;;;;4953977;29;20136;-73
2021/08/31 11:24:29;;;;;;;18.90;17.60;;;18.60;75.50;;;;;;4953120;29;20039;-74
2021/08/31 11:27:03;;;;;;;18.95;17.67;;;18.40;75.50;;;;;;4950185;29;20525;-74
2021/08/31 11:29:35;;;;;;;18.45;17.25;;;18.30;75.40;;;;;;4959023;29;20043;-75
2021/08/31 11:32:07;;;;;;;18.92;17.63;;;18.30;74.60;;;;;;4950223;29;20209;-74
2021/08/31 11:34:39;;;;;;;19.00;17.70;;;18.20;74.30;;;;;;4953560;29;20198;-75
2021/08/31 11:37:11;;;;;;;18.38;17.17;;;18.10;75.80;;;;;;4952409;29;20063;-76
2021/08/31 11:39:42;;;;;;;19.00;17.73;;;18.10;76.40;;;;;;4952859;29;20143;-75
2021/08/31 11:42:14;;;;;;;18.83;17.52;;;18.10;77.10;;;;;;4949605;29;20055;-74
2021/08/31 11:44:57;;;;;;;18.08;16.88;;;18.10;78.10;;;;;;4953844;29;20141;-76
2021/08/31 11:47:30;;;;;;;18.13;16.92;;;18.10;77.30;;;;;;4951962;29;20043;-73
2021/08/31 11:50:02;;;;;;;18.73;17.42;;;18.20;78.10;;;;;;4952582;29;20075;-74
2021/08/31 11:52:34;;;;;;;18.35;17.05;;;18.30;78.20;;;;;;4951400;29;20053;-74
2021/08/31 11:55:06;;;;;;;19.00;17.70;;;18.40;76.30;;;;;;4949320;29;20043;-73
2021/08/31 11:57:38;;;;;;;19.35;18.05;;;18.60;76.20;;;;;;4953508;29;20600;-74
2021/08/31 12:00:13;;;;;;;19.08;17.77;;;18.70;76.30;;;;;;4950404;29;20469;-73
2021/08/31 12:02:45;;;;;;;19.10;17.70;;;18.70;77.50;;;;;;4936431;29;20806;-75
2021/08/31 12:05:17;;;;;;;19.27;17.98;;;18.80;77.40;;;;;;4953048;29;20127;-76
2021/08/31 12:07:49;;;;;;;19.33;18.02;;;18.80;77.70;;;;;;4951404;29;20141;-75
2021/08/31 12:10:25;;;;;;;19.30;18.00;;;18.80;77.80;;;;;;4952058;29;20047;-74
2021/08/31 12:12:57;;;;;;;19.33;18.02;;;18.80;77.50;;;;;;4951905;29;20121;-74
2021/08/31 12:15:31;;;;;;;19.90;18.50;;;18.80;77.10;;;;;;4951076;29;20100;-72
2021/08/31 12:18:05;;;;;;;19.52;18.23;;;19.00;76.90;;;;;;4967754;29;20394;-75
2021/08/31 12:20:37;;;;;;;19.70;18.35;;;19.20;77.00;;;;;;4951128;29;20055;-74
2021/08/31 12:23:10;;;;;;;20.05;18.75;;;19.10;76.50;;;;;;4951691;29;20462;-72
2021/08/31 12:25:50;;;;;;;20.50;19.10;;;19.00;73.70;;;;;;4952259;29;20096;-73
2021/08/31 12:28:22;;;;;;;20.02;18.63;;;19.10;74.50;;;;;;4951779;29;20141;-74
2021/08/31 12:30:54;;;;;;;20.65;19.20;;;19.10;75.70;;;;;;4950546;29;20485;-75
2021/08/31 12:33:28;;;;;;;20.75;19.25;;;19.20;75.30;;;;;;4951814;29;20051;-73
2021/08/31 12:36:08;;;;;;;20.25;18.85;;;19.30;73.30;;;;;;4951015;29;20898;-73
2021/08/31 12:38:46;;;;;;;20.30;18.90;;;19.40;73.40;;;;;;4952778;29;20055;-74
2021/08/31 12:41:23;;;;;;;20.52;19.13;;;19.30;73.70;;;;;;4953208;29;20583;-75
2021/08/31 12:43:59;;;;;;;20.48;18.98;;;19.40;73.70;;;;;;4950240;29;20080;-75
2021/08/31 12:46:36;;;;;;;19.85;18.55;;;19.60;73.20;;;;;;4950488;29;20058;-75
2021/08/31 12:49:13;;;;;;;19.60;18.30;;;19.70;71.80;;;;;;4952333;29;20461;-76
2021/08/31 12:51:51;;;;;;;20.27;18.85;;;19.50;73.90;;;;;;4950612;29;20138;-76
2021/08/31 12:54:29;;;;;;;19.75;18.45;;;19.50;73.10;;;;;;4947304;29;20043;-73
2021/08/31 12:57:04;;;;;;;19.98;18.58;;;19.60;72.70;;;;;;4951211;29;20102;-74
2021/08/31 12:59:42;;;;;;;20.23;18.83;;;19.50;72.60;;;;;;4951191;29;20135;-74
2021/08/31 13:02:17;;;;;;;20.17;18.67;;;19.50;74.00;;;;;;4949019;29;20051;-73